sensor_id;sensor_type;location;lat;lon;timestamp;P1;durP1;ratioP1;P2;durP2;ratioP2
53064;SDS011;38948;48.376;-4.312;2022-10-14T00:00:35;6.95;;;3.65;;
53064;SDS011;38948;48.376;-4.312;2022-10-14T00:03:01;8.32;;;3.80;;
53064;SDS011;38948;48.376;-4.312;2022-10-14T00:05:27;7.30;;;3.80;;
53064;SDS011;38948;48.376;-4.312;2022-10-14T00:07:53;6.75;;;3.53;;
53064;SDS011;38948;48.376;-4.312;2022-10-14T00:10:21;8.52;;;3.40;;
53064;SDS011;38948;48.376;-4.312;2022-10-14T00:12:47;7.07;;;3.90;;
53064;SDS011;38948;48.376;-4.312;2022-10-14T00:15:14;7.38;;;3.33;;
53064;SDS011;38948;48.376;-4.312;2022-10-14T00:17:41;6.90;;;3.47;;
53064;SDS011;38948;48.376;-4.312;2022-10-14T00:20:07;8.55;;;3.63;;
53064;SDS011;38948;48.376;-4.312;2022-10-14T00:22:33;7.22;;;3.47;;
53064;SDS011;38948;48.376;-4.312;2022-10-14T00:24:59;9.50;;;3.55;;
53064;SDS011;38948;48.376;-4.312;2022-10-14T00:27:24;8.07;;;3.50;;
53064;SDS011;38948;48.376;-4.312;2022-10-14T00:29:50;7.43;;;3.28;;
53064;SDS011;38948;48.376;-4.312;2022-10-14T00:32:16;7.80;;;3.25;;
53064;SDS011;38948;48.376;-4.312;2022-10-14T00:34:42;10.07;;;2.90;;
53064;SDS011;38948;48.376;-4.312;2022-10-14T00:37:08;6.20;;;3.53;;
53064;SDS011;38948;48.376;-4.312;2022-10-14T00:39:34;8.35;;;3.13;;
53064;SDS011;38948;48.376;-4.312;2022-10-14T00:42:00;8.70;;;3.50;;
53064;SDS011;38948;48.376;-4.312;2022-10-14T00:46:52;6.57;;;3.10;;
53064;SDS011;38948;48.376;-4.312;2022-10-14T00:49:22;7.38;;;2.92;;
53064;SDS011;38948;48.376;-4.312;2022-10-14T00:54:23;6.28;;;3.05;;
53064;SDS011;38948;48.376;-4.312;2022-10-14T00:56:54;5.90;;;3.17;;
53064;SDS011;38948;48.376;-4.312;2022-10-14T00:59:20;7.28;;;3.00;;
53064;SDS011;38948;48.376;-4.312;2022-10-14T01:01:46;6.78;;;2.72;;
53064;SDS011;38948;48.376;-4.312;2022-10-14T01:04:12;6.65;;;3.35;;
53064;SDS011;38948;48.376;-4.312;2022-10-14T01:15:33;6.47;;;3.13;;
53064;SDS011;38948;48.376;-4.312;2022-10-14T01:18:34;5.18;;;2.03;;
53064;SDS011;38948;48.376;-4.312;2022-10-14T01:24:03;5.75;;;3.03;;
53064;SDS011;38948;48.376;-4.312;2022-10-14T01:26:55;4.63;;;2.53;;
53064;SDS011;38948;48.376;-4.312;2022-10-14T01:38:13;5.10;;;2.22;;
53064;SDS011;38948;48.376;-4.312;2022-10-14T01:41:05;5.85;;;2.72;;
53064;SDS011;38948;48.376;-4.312;2022-10-14T01:43:32;4.63;;;2.40;;
53064;SDS011;38948;48.376;-4.312;2022-10-14T01:46:01;5.57;;;2.60;;
53064;SDS011;38948;48.376;-4.312;2022-10-14T01:48:32;4.18;;;2.17;;
53064;SDS011;38948;48.376;-4.312;2022-10-14T01:51:02;4.05;;;2.35;;
53064;SDS011;38948;48.376;-4.312;2022-10-14T01:53:33;3.95;;;2.20;;
53064;SDS011;38948;48.376;-4.312;2022-10-14T01:56:03;4.57;;;2.20;;
53064;SDS011;38948;48.376;-4.312;2022-10-14T01:58:30;5.00;;;2.25;;
53064;SDS011;38948;48.376;-4.312;2022-10-14T02:01:01;4.03;;;2.30;;
53064;SDS011;38948;48.376;-4.312;2022-10-14T02:03:38;5.30;;;2.15;;
53064;SDS011;38948;48.376;-4.312;2022-10-14T02:06:14;4.60;;;2.10;;
53064;SDS011;38948;48.376;-4.312;2022-10-14T02:09:02;5.45;;;2.13;;
53064;SDS011;38948;48.376;-4.312;2022-10-14T02:11:38;5.50;;;2.00;;
53064;SDS011;38948;48.376;-4.312;2022-10-14T02:17:00;3.92;;;2.08;;
53064;SDS011;38948;48.376;-4.312;2022-10-14T02:25:05;4.50;;;1.98;;
53064;SDS011;38948;48.376;-4.312;2022-10-14T02:27:42;3.65;;;2.03;;
53064;SDS011;38948;48.376;-4.312;2022-10-14T02:30:09;3.47;;;1.60;;
53064;SDS011;38948;48.376;-4.312;2022-10-14T02:32:36;5.63;;;1.88;;
53064;SDS011;38948;48.376;-4.312;2022-10-14T02:35:04;3.60;;;1.73;;
53064;SDS011;38948;48.376;-4.312;2022-10-14T02:37:31;4.30;;;1.77;;
53064;SDS011;38948;48.376;-4.312;2022-10-14T02:40:09;4.20;;;1.95;;
53064;SDS011;38948;48.376;-4.312;2022-10-14T02:42:39;4.88;;;1.80;;
53064;SDS011;38948;48.376;-4.312;2022-10-14T02:45:05;3.08;;;1.85;;
53064;SDS011;38948;48.376;-4.312;2022-10-14T02:47:32;4.10;;;2.03;;
53064;SDS011;38948;48.376;-4.312;2022-10-14T02:49:58;2.75;;;1.80;;
53064;SDS011;38948;48.376;-4.312;2022-10-14T02:52:24;4.43;;;2.03;;
53064;SDS011;38948;48.376;-4.312;2022-10-14T02:54:49;3.80;;;1.70;;
53064;SDS011;38948;48.376;-4.312;2022-10-14T02:57:15;5.93;;;2.17;;
53064;SDS011;38948;48.376;-4.312;2022-10-14T02:59:41;3.47;;;1.85;;
53064;SDS011;38948;48.376;-4.312;2022-10-14T03:02:07;4.05;;;1.60;;
53064;SDS011;38948;48.376;-4.312;2022-10-14T03:04:33;3.35;;;1.85;;
53064;SDS011;38948;48.376;-4.312;2022-10-14T03:06:59;3.75;;;2.10;;
53064;SDS011;38948;48.376;-4.312;2022-10-14T03:09:25;3.63;;;1.77;;
53064;SDS011;38948;48.376;-4.312;2022-10-14T03:11:51;4.38;;;1.70;;
53064;SDS011;38948;48.376;-4.312;2022-10-14T03:14:17;2.90;;;1.58;;
53064;SDS011;38948;48.376;-4.312;2022-10-14T03:16:43;3.03;;;1.50;;
53064;SDS011;38948;48.376;-4.312;2022-10-14T03:19:08;3.25;;;1.60;;
53064;SDS011;38948;48.376;-4.312;2022-10-14T03:21:34;2.72;;;1.50;;
53064;SDS011;38948;48.376;-4.312;2022-10-14T03:24:00;4.55;;;1.58;;
53064;SDS011;38948;48.376;-4.312;2022-10-14T03:26:26;4.40;;;2.00;;
53064;SDS011;38948;48.376;-4.312;2022-10-14T03:28:52;2.90;;;1.42;;
53064;SDS011;38948;48.376;-4.312;2022-10-14T03:31:18;3.97;;;1.60;;
53064;SDS011;38948;48.376;-4.312;2022-10-14T03:33:44;3.35;;;1.60;;
53064;SDS011;38948;48.376;-4.312;2022-10-14T03:36:10;2.63;;;1.58;;
53064;SDS011;38948;48.376;-4.312;2022-10-14T03:38:36;3.35;;;1.77;;
53064;SDS011;38948;48.376;-4.312;2022-10-14T03:41:02;3.58;;;1.45;;
53064;SDS011;38948;48.376;-4.312;2022-10-14T03:43:28;3.13;;;1.50;;
53064;SDS011;38948;48.376;-4.312;2022-10-14T03:45:54;2.47;;;1.27;;
53064;SDS011;38948;48.376;-4.312;2022-10-14T03:48:20;2.50;;;1.40;;
53064;SDS011;38948;48.376;-4.312;2022-10-14T03:50:49;3.05;;;1.40;;
53064;SDS011;38948;48.376;-4.312;2022-10-14T03:53:15;2.83;;;1.27;;
53064;SDS011;38948;48.376;-4.312;2022-10-14T03:55:40;2.70;;;1.48;;
53064;SDS011;38948;48.376;-4.312;2022-10-14T03:58:07;2.22;;;1.08;;
53064;SDS011;38948;48.376;-4.312;2022-10-14T04:00:34;3.08;;;1.60;;
53064;SDS011;38948;48.376;-4.312;2022-10-14T04:03:00;2.78;;;1.38;;
53064;SDS011;38948;48.376;-4.312;2022-10-14T04:05:26;2.28;;;1.27;;
53064;SDS011;38948;48.376;-4.312;2022-10-14T04:07:58;2.63;;;1.20;;
53064;SDS011;38948;48.376;-4.312;2022-10-14T04:10:25;3.38;;;1.33;;
53064;SDS011;38948;48.376;-4.312;2022-10-14T04:12:53;4.18;;;1.30;;
53064;SDS011;38948;48.376;-4.312;2022-10-14T04:15:20;3.80;;;1.35;;
53064;SDS011;38948;48.376;-4.312;2022-10-14T04:17:47;2.35;;;1.08;;
53064;SDS011;38948;48.376;-4.312;2022-10-14T04:20:13;2.72;;;1.10;;
53064;SDS011;38948;48.376;-4.312;2022-10-14T04:22:40;3.03;;;1.40;;
53064;SDS011;38948;48.376;-4.312;2022-10-14T04:25:06;1.40;;;0.80;;
53064;SDS011;38948;48.376;-4.312;2022-10-14T04:27:32;2.53;;;1.30;;
53064;SDS011;38948;48.376;-4.312;2022-10-14T04:29:58;2.60;;;1.10;;
53064;SDS011;38948;48.376;-4.312;2022-10-14T04:32:24;1.95;;;1.13;;
53064;SDS011;38948;48.376;-4.312;2022-10-14T04:34:50;1.20;;;0.88;;
53064;SDS011;38948;48.376;-4.312;2022-10-14T04:37:16;2.28;;;1.20;;
53064;SDS011;38948;48.376;-4.312;2022-10-14T04:39:42;2.33;;;0.88;;
53064;SDS011;38948;48.376;-4.312;2022-10-14T04:42:07;1.33;;;0.88;;
53064;SDS011;38948;48.376;-4.312;2022-10-14T04:44:34;2.45;;;1.17;;
53064;SDS011;38948;48.376;-4.312;2022-10-14T04:46:59;3.25;;;1.05;;
53064;SDS011;38948;48.376;-4.312;2022-10-14T04:49:25;1.40;;;0.68;;
53064;SDS011;38948;48.376;-4.312;2022-10-14T04:51:51;1.40;;;0.88;;
53064;SDS011;38948;48.376;-4.312;2022-10-14T04:54:17;2.53;;;1.17;;
53064;SDS011;38948;48.376;-4.312;2022-10-14T04:56:43;2.58;;;1.10;;
53064;SDS011;38948;48.376;-4.312;2022-10-14T04:59:09;3.70;;;1.08;;
53064;SDS011;38948;48.376;-4.312;2022-10-14T05:01:36;2.95;;;1.80;;
53064;SDS011;38948;48.376;-4.312;2022-10-14T05:04:01;3.63;;;1.60;;
53064;SDS011;38948;48.376;-4.312;2022-10-14T05:06:31;2.75;;;1.10;;
53064;SDS011;38948;48.376;-4.312;2022-10-14T05:08:57;4.55;;;1.25;;
53064;SDS011;38948;48.376;-4.312;2022-10-14T05:11:22;3.63;;;1.35;;
53064;SDS011;38948;48.376;-4.312;2022-10-14T05:13:48;2.88;;;1.30;;
53064;SDS011;38948;48.376;-4.312;2022-10-14T05:16:14;2.95;;;1.42;;
53064;SDS011;38948;48.376;-4.312;2022-10-14T05:18:40;1.65;;;1.05;;
53064;SDS011;38948;48.376;-4.312;2022-10-14T05:21:06;3.00;;;1.40;;
53064;SDS011;38948;48.376;-4.312;2022-10-14T05:23:31;1.80;;;1.17;;
53064;SDS011;38948;48.376;-4.312;2022-10-14T05:25:57;2.92;;;1.20;;
53064;SDS011;38948;48.376;-4.312;2022-10-14T05:28:23;2.80;;;1.10;;
53064;SDS011;38948;48.376;-4.312;2022-10-14T05:30:49;2.38;;;1.30;;
53064;SDS011;38948;48.376;-4.312;2022-10-14T05:33:15;3.08;;;1.00;;
53064;SDS011;38948;48.376;-4.312;2022-10-14T05:35:41;2.45;;;1.15;;
53064;SDS011;38948;48.376;-4.312;2022-10-14T05:38:08;2.22;;;1.00;;
53064;SDS011;38948;48.376;-4.312;2022-10-14T05:40:34;6.07;;;1.35;;
53064;SDS011;38948;48.376;-4.312;2022-10-14T05:43:02;3.50;;;2.00;;
53064;SDS011;38948;48.376;-4.312;2022-10-14T05:45:28;2.08;;;1.02;;
53064;SDS011;38948;48.376;-4.312;2022-10-14T05:47:53;2.90;;;1.27;;
53064;SDS011;38948;48.376;-4.312;2022-10-14T05:50:21;2.25;;;1.08;;
53064;SDS011;38948;48.376;-4.312;2022-10-14T05:52:46;8.32;;;1.23;;
53064;SDS011;38948;48.376;-4.312;2022-10-14T05:55:12;1.08;;;0.85;;
53064;SDS011;38948;48.376;-4.312;2022-10-14T05:57:38;2.53;;;0.95;;
53064;SDS011;38948;48.376;-4.312;2022-10-14T06:00:06;2.03;;;0.90;;
53064;SDS011;38948;48.376;-4.312;2022-10-14T06:02:33;4.70;;;1.20;;
53064;SDS011;38948;48.376;-4.312;2022-10-14T06:04:58;2.60;;;1.10;;
53064;SDS011;38948;48.376;-4.312;2022-10-14T06:07:24;2.17;;;1.73;;
53064;SDS011;38948;48.376;-4.312;2022-10-14T06:09:50;2.83;;;1.30;;
53064;SDS011;38948;48.376;-4.312;2022-10-14T06:12:16;2.42;;;0.82;;
53064;SDS011;38948;48.376;-4.312;2022-10-14T06:14:41;1.92;;;0.82;;
53064;SDS011;38948;48.376;-4.312;2022-10-14T06:17:07;2.95;;;1.00;;
53064;SDS011;38948;48.376;-4.312;2022-10-14T06:19:33;2.88;;;0.85;;
53064;SDS011;38948;48.376;-4.312;2022-10-14T06:21:58;1.80;;;0.93;;
53064;SDS011;38948;48.376;-4.312;2022-10-14T06:24:24;1.90;;;0.70;;
53064;SDS011;38948;48.376;-4.312;2022-10-14T06:26:51;3.65;;;0.93;;
53064;SDS011;38948;48.376;-4.312;2022-10-14T06:29:16;3.30;;;0.80;;
53064;SDS011;38948;48.376;-4.312;2022-10-14T06:31:42;2.00;;;0.95;;
53064;SDS011;38948;48.376;-4.312;2022-10-14T06:34:08;3.42;;;0.98;;
53064;SDS011;38948;48.376;-4.312;2022-10-14T06:36:34;3.22;;;0.80;;
53064;SDS011;38948;48.376;-4.312;2022-10-14T06:39:01;2.17;;;0.77;;
53064;SDS011;38948;48.376;-4.312;2022-10-14T06:41:28;2.78;;;1.00;;
53064;SDS011;38948;48.376;-4.312;2022-10-14T06:43:53;4.03;;;0.90;;
53064;SDS011;38948;48.376;-4.312;2022-10-14T06:46:19;3.25;;;1.00;;
53064;SDS011;38948;48.376;-4.312;2022-10-14T06:48:45;3.67;;;1.00;;
53064;SDS011;38948;48.376;-4.312;2022-10-14T06:51:11;2.80;;;0.93;;
53064;SDS011;38948;48.376;-4.312;2022-10-14T06:53:37;4.47;;;0.98;;
53064;SDS011;38948;48.376;-4.312;2022-10-14T06:56:04;3.75;;;1.20;;
53064;SDS011;38948;48.376;-4.312;2022-10-14T06:58:31;2.30;;;1.15;;
53064;SDS011;38948;48.376;-4.312;2022-10-14T07:01:04;2.40;;;0.90;;
53064;SDS011;38948;48.376;-4.312;2022-10-14T07:03:35;4.15;;;0.80;;
53064;SDS011;38948;48.376;-4.312;2022-10-14T07:06:03;3.15;;;0.57;;
53064;SDS011;38948;48.376;-4.312;2022-10-14T07:08:31;6.05;;;0.85;;
53064;SDS011;38948;48.376;-4.312;2022-10-14T07:10:57;2.67;;;0.80;;
53064;SDS011;38948;48.376;-4.312;2022-10-14T07:13:22;3.33;;;0.95;;
53064;SDS011;38948;48.376;-4.312;2022-10-14T07:15:48;4.47;;;0.95;;
53064;SDS011;38948;48.376;-4.312;2022-10-14T07:18:15;2.80;;;0.70;;
53064;SDS011;38948;48.376;-4.312;2022-10-14T07:20:41;2.00;;;0.68;;
53064;SDS011;38948;48.376;-4.312;2022-10-14T07:23:07;2.42;;;0.82;;
53064;SDS011;38948;48.376;-4.312;2022-10-14T07:25:37;4.80;;;0.88;;
53064;SDS011;38948;48.376;-4.312;2022-10-14T07:28:03;3.10;;;0.73;;
53064;SDS011;38948;48.376;-4.312;2022-10-14T07:30:29;1.83;;;0.57;;
53064;SDS011;38948;48.376;-4.312;2022-10-14T07:32:55;3.65;;;0.90;;
53064;SDS011;38948;48.376;-4.312;2022-10-14T07:35:20;3.10;;;0.70;;
53064;SDS011;38948;48.376;-4.312;2022-10-14T07:37:46;2.42;;;0.60;;
53064;SDS011;38948;48.376;-4.312;2022-10-14T07:40:12;3.72;;;0.80;;
53064;SDS011;38948;48.376;-4.312;2022-10-14T07:42:38;4.20;;;0.80;;
53064;SDS011;38948;48.376;-4.312;2022-10-14T07:45:05;2.22;;;1.00;;
53064;SDS011;38948;48.376;-4.312;2022-10-14T07:47:31;3.30;;;0.80;;
53064;SDS011;38948;48.376;-4.312;2022-10-14T07:49:58;4.40;;;0.90;;
53064;SDS011;38948;48.376;-4.312;2022-10-14T07:52:26;2.10;;;0.60;;
53064;SDS011;38948;48.376;-4.312;2022-10-14T07:54:52;2.38;;;0.63;;
53064;SDS011;38948;48.376;-4.312;2022-10-14T07:57:18;3.90;;;1.05;;
53064;SDS011;38948;48.376;-4.312;2022-10-14T07:59:43;2.10;;;0.77;;
53064;SDS011;38948;48.376;-4.312;2022-10-14T08:02:10;3.03;;;0.70;;
53064;SDS011;38948;48.376;-4.312;2022-10-14T08:04:36;1.67;;;0.43;;
53064;SDS011;38948;48.376;-4.312;2022-10-14T08:07:02;1.48;;;0.52;;
53064;SDS011;38948;48.376;-4.312;2022-10-14T08:09:29;2.80;;;0.70;;
53064;SDS011;38948;48.376;-4.312;2022-10-14T08:11:55;1.60;;;0.75;;
53064;SDS011;38948;48.376;-4.312;2022-10-14T08:14:20;2.65;;;0.73;;
53064;SDS011;38948;48.376;-4.312;2022-10-14T08:16:46;2.00;;;0.68;;
53064;SDS011;38948;48.376;-4.312;2022-10-14T08:19:12;2.85;;;0.80;;
53064;SDS011;38948;48.376;-4.312;2022-10-14T08:21:38;1.45;;;0.30;;
53064;SDS011;38948;48.376;-4.312;2022-10-14T08:24:05;2.35;;;0.70;;
53064;SDS011;38948;48.376;-4.312;2022-10-14T08:26:35;1.38;;;0.70;;
53064;SDS011;38948;48.376;-4.312;2022-10-14T08:29:06;0.90;;;0.47;;
53064;SDS011;38948;48.376;-4.312;2022-10-14T08:31:34;1.55;;;0.80;;
53064;SDS011;38948;48.376;-4.312;2022-10-14T08:34:01;2.10;;;0.60;;
53064;SDS011;38948;48.376;-4.312;2022-10-14T08:36:26;1.60;;;1.10;;
53064;SDS011;38948;48.376;-4.312;2022-10-14T08:38:53;1.35;;;0.63;;
53064;SDS011;38948;48.376;-4.312;2022-10-14T08:44:10;1.05;;;0.55;;
53064;SDS011;38948;48.376;-4.312;2022-10-14T08:52:23;3.60;;;0.75;;
53064;SDS011;38948;48.376;-4.312;2022-10-14T08:54:56;1.17;;;0.52;;
53064;SDS011;38948;48.376;-4.312;2022-10-14T08:57:27;3.15;;;0.80;;
53064;SDS011;38948;48.376;-4.312;2022-10-14T08:59:58;3.13;;;0.70;;
53064;SDS011;38948;48.376;-4.312;2022-10-14T09:05:03;1.52;;;0.73;;
53064;SDS011;38948;48.376;-4.312;2022-10-14T09:07:30;1.17;;;0.45;;
53064;SDS011;38948;48.376;-4.312;2022-10-14T09:10:04;1.95;;;0.80;;
53064;SDS011;38948;48.376;-4.312;2022-10-14T09:12:32;1.37;;;0.57;;
53064;SDS011;38948;48.376;-4.312;2022-10-14T09:17:33;1.77;;;0.70;;
53064;SDS011;38948;48.376;-4.312;2022-10-14T09:22:34;2.00;;;0.95;;
53064;SDS011;38948;48.376;-4.312;2022-10-14T09:25:00;1.48;;;0.57;;
53064;SDS011;38948;48.376;-4.312;2022-10-14T09:27:26;4.75;;;0.88;;
53064;SDS011;38948;48.376;-4.312;2022-10-14T09:29:54;2.17;;;0.68;;
53064;SDS011;38948;48.376;-4.312;2022-10-14T09:33:05;3.33;;;0.80;;
53064;SDS011;38948;48.376;-4.312;2022-10-14T09:35:22;3.13;;;0.60;;
53064;SDS011;38948;48.376;-4.312;2022-10-14T09:37:59;4.05;;;0.73;;
53064;SDS011;38948;48.376;-4.312;2022-10-14T09:40:28;0.25;;;0.20;;
53064;SDS011;38948;48.376;-4.312;2022-10-14T09:51:09;0.73;;;0.43;;
53064;SDS011;38948;48.376;-4.312;2022-10-14T09:53:44;1.42;;;0.50;;
53064;SDS011;38948;48.376;-4.312;2022-10-14T09:56:13;1.40;;;0.52;;
53064;SDS011;38948;48.376;-4.312;2022-10-14T09:58:46;1.15;;;0.50;;
53064;SDS011;38948;48.376;-4.312;2022-10-14T10:01:26;2.33;;;0.65;;
53064;SDS011;38948;48.376;-4.312;2022-10-14T10:06:52;1.52;;;0.55;;
53064;SDS011;38948;48.376;-4.312;2022-10-14T10:09:19;1.25;;;0.43;;
53064;SDS011;38948;48.376;-4.312;2022-10-14T10:11:46;1.42;;;0.40;;
53064;SDS011;38948;48.376;-4.312;2022-10-14T10:16:46;0.93;;;0.45;;
53064;SDS011;38948;48.376;-4.312;2022-10-14T10:19:28;0.43;;;0.30;;
53064;SDS011;38948;48.376;-4.312;2022-10-14T10:24:42;1.17;;;0.47;;
53064;SDS011;38948;48.376;-4.312;2022-10-14T10:36:23;0.73;;;0.35;;
53064;SDS011;38948;48.376;-4.312;2022-10-14T10:39:12;1.35;;;0.45;;
53064;SDS011;38948;48.376;-4.312;2022-10-14T10:42:05;2.58;;;0.30;;
53064;SDS011;38948;48.376;-4.312;2022-10-14T10:45:04;2.45;;;0.70;;
53064;SDS011;38948;48.376;-4.312;2022-10-14T10:47:48;1.13;;;0.40;;
53064;SDS011;38948;48.376;-4.312;2022-10-14T10:50:40;1.10;;;0.60;;
53064;SDS011;38948;48.376;-4.312;2022-10-14T11:07:01;1.85;;;0.40;;
53064;SDS011;38948;48.376;-4.312;2022-10-14T11:26:05;0.70;;;0.30;;
53064;SDS011;38948;48.376;-4.312;2022-10-14T11:34:20;0.30;;;0.30;;
53064;SDS011;38948;48.376;-4.312;2022-10-14T11:36:53;0.75;;;0.38;;
53064;SDS011;38948;48.376;-4.312;2022-10-14T11:39:36;0.75;;;0.30;;
53064;SDS011;38948;48.376;-4.312;2022-10-14T11:44:40;0.30;;;0.30;;
53064;SDS011;38948;48.376;-4.312;2022-10-14T11:47:21;0.20;;;0.20;;
53064;SDS011;38948;48.376;-4.312;2022-10-14T11:49:59;2.63;;;0.45;;
53064;SDS011;38948;48.376;-4.312;2022-10-14T11:52:37;0.73;;;0.30;;
53064;SDS011;38948;48.376;-4.312;2022-10-14T11:55:12;0.82;;;0.30;;
53064;SDS011;38948;48.376;-4.312;2022-10-14T11:57:45;0.88;;;0.32;;
53064;SDS011;38948;48.376;-4.312;2022-10-14T12:00:17;0.65;;;0.30;;
53064;SDS011;38948;48.376;-4.312;2022-10-14T12:11:09;0.50;;;0.20;;
53064;SDS011;38948;48.376;-4.312;2022-10-14T12:13:53;0.55;;;0.20;;
53064;SDS011;38948;48.376;-4.312;2022-10-14T12:16:27;0.85;;;0.20;;
53064;SDS011;38948;48.376;-4.312;2022-10-14T12:18:54;1.00;;;0.30;;
53064;SDS011;38948;48.376;-4.312;2022-10-14T12:29:15;1.48;;;0.40;;
53064;SDS011;38948;48.376;-4.312;2022-10-14T12:31:47;0.32;;;0.10;;
53064;SDS011;38948;48.376;-4.312;2022-10-14T12:34:16;0.43;;;0.20;;
53064;SDS011;38948;48.376;-4.312;2022-10-14T12:36:50;0.50;;;0.28;;
53064;SDS011;38948;48.376;-4.312;2022-10-14T12:41:48;0.28;;;0.22;;
53064;SDS011;38948;48.376;-4.312;2022-10-14T12:44:40;0.25;;;0.20;;
53064;SDS011;38948;48.376;-4.312;2022-10-14T12:49:57;0.10;;;0.10;;
53064;SDS011;38948;48.376;-4.312;2022-10-14T12:52:29;0.13;;;0.10;;
53064;SDS011;38948;48.376;-4.312;2022-10-14T12:54:58;0.13;;;0.13;;
53064;SDS011;38948;48.376;-4.312;2022-10-14T12:57:30;0.40;;;0.20;;
53064;SDS011;38948;48.376;-4.312;2022-10-14T12:59:58;0.40;;;0.28;;
53064;SDS011;38948;48.376;-4.312;2022-10-14T13:03:00;0.20;;;0.17;;
53064;SDS011;38948;48.376;-4.312;2022-10-14T13:05:40;0.75;;;0.40;;
53064;SDS011;38948;48.376;-4.312;2022-10-14T13:18:57;0.40;;;0.20;;
53064;SDS011;38948;48.376;-4.312;2022-10-14T13:31:50;0.52;;;0.20;;
53064;SDS011;38948;48.376;-4.312;2022-10-14T13:37:10;0.10;;;0.10;;
53064;SDS011;38948;48.376;-4.312;2022-10-14T13:39:47;0.22;;;0.20;;
53064;SDS011;38948;48.376;-4.312;2022-10-14T13:42:14;1.45;;;0.20;;
53064;SDS011;38948;48.376;-4.312;2022-10-14T13:45:09;0.30;;;0.20;;
53064;SDS011;38948;48.376;-4.312;2022-10-14T13:47:42;0.10;;;0.10;;
53064;SDS011;38948;48.376;-4.312;2022-10-14T13:50:24;0.60;;;0.25;;
53064;SDS011;38948;48.376;-4.312;2022-10-14T13:52:58;0.30;;;0.20;;
53064;SDS011;38948;48.376;-4.312;2022-10-14T13:55:43;0.55;;;0.08;;
53064;SDS011;38948;48.376;-4.312;2022-10-14T13:58:11;0.25;;;0.17;;
53064;SDS011;38948;48.376;-4.312;2022-10-14T14:00:48;0.50;;;0.20;;
53064;SDS011;38948;48.376;-4.312;2022-10-14T14:03:34;0.20;;;0.20;;
53064;SDS011;38948;48.376;-4.312;2022-10-14T14:06:12;0.20;;;0.20;;
53064;SDS011;38948;48.376;-4.312;2022-10-14T14:08:54;0.60;;;0.30;;
53064;SDS011;38948;48.376;-4.312;2022-10-14T14:11:30;0.80;;;0.20;;
53064;SDS011;38948;48.376;-4.312;2022-10-14T14:14:07;1.55;;;0.25;;
53064;SDS011;38948;48.376;-4.312;2022-10-14T14:16:54;0.38;;;0.10;;
53064;SDS011;38948;48.376;-4.312;2022-10-14T14:19:32;0.30;;;0.20;;
53064;SDS011;38948;48.376;-4.312;2022-10-14T14:24:51;1.08;;;0.30;;
53064;SDS011;38948;48.376;-4.312;2022-10-14T14:27:32;1.23;;;0.32;;
53064;SDS011;38948;48.376;-4.312;2022-10-14T14:29:59;0.20;;;0.13;;
53064;SDS011;38948;48.376;-4.312;2022-10-14T14:32:29;0.35;;;0.10;;
53064;SDS011;38948;48.376;-4.312;2022-10-14T14:34:57;0.00;;;0.00;;
53064;SDS011;38948;48.376;-4.312;2022-10-14T14:40:33;0.35;;;0.22;;
53064;SDS011;38948;48.376;-4.312;2022-10-14T14:42:48;0.30;;;0.10;;
53064;SDS011;38948;48.376;-4.312;2022-10-14T14:47:54;0.10;;;0.10;;
53064;SDS011;38948;48.376;-4.312;2022-10-14T14:50:38;0.10;;;0.00;;
53064;SDS011;38948;48.376;-4.312;2022-10-14T14:53:15;0.10;;;0.10;;
53064;SDS011;38948;48.376;-4.312;2022-10-14T14:58:23;0.20;;;0.10;;
53064;SDS011;38948;48.376;-4.312;2022-10-14T15:03:58;0.90;;;0.15;;
53064;SDS011;38948;48.376;-4.312;2022-10-14T15:06:39;0.10;;;0.10;;
53064;SDS011;38948;48.376;-4.312;2022-10-14T15:09:25;0.20;;;0.20;;
53064;SDS011;38948;48.376;-4.312;2022-10-14T15:12:13;0.10;;;0.10;;
53064;SDS011;38948;48.376;-4.312;2022-10-14T15:14:46;0.63;;;0.20;;
53064;SDS011;38948;48.376;-4.312;2022-10-14T15:17:23;0.20;;;0.15;;
53064;SDS011;38948;48.376;-4.312;2022-10-14T15:19:53;0.68;;;0.20;;
53064;SDS011;38948;48.376;-4.312;2022-10-14T15:22:29;0.50;;;0.10;;
53064;SDS011;38948;48.376;-4.312;2022-10-14T15:25:00;1.42;;;0.25;;
53064;SDS011;38948;48.376;-4.312;2022-10-14T15:27:42;0.20;;;0.08;;
53064;SDS011;38948;48.376;-4.312;2022-10-14T15:30:24;0.20;;;0.13;;
53064;SDS011;38948;48.376;-4.312;2022-10-14T15:33:02;0.28;;;0.28;;
53064;SDS011;38948;48.376;-4.312;2022-10-14T15:35:28;0.20;;;0.20;;
53064;SDS011;38948;48.376;-4.312;2022-10-14T15:37:55;0.32;;;0.20;;
53064;SDS011;38948;48.376;-4.312;2022-10-14T15:40:22;0.52;;;0.10;;
53064;SDS011;38948;48.376;-4.312;2022-10-14T15:42:51;1.98;;;0.55;;
53064;SDS011;38948;48.376;-4.312;2022-10-14T15:45:17;2.88;;;0.30;;
53064;SDS011;38948;48.376;-4.312;2022-10-14T15:47:44;0.45;;;0.15;;
53064;SDS011;38948;48.376;-4.312;2022-10-14T15:50:17;1.00;;;0.50;;
53064;SDS011;38948;48.376;-4.312;2022-10-14T15:52:45;0.30;;;0.20;;
53064;SDS011;38948;48.376;-4.312;2022-10-14T15:55:17;0.90;;;0.25;;
53064;SDS011;38948;48.376;-4.312;2022-10-14T15:57:48;3.38;;;0.50;;
53064;SDS011;38948;48.376;-4.312;2022-10-14T16:00:15;0.68;;;0.15;;
53064;SDS011;38948;48.376;-4.312;2022-10-14T16:02:43;1.27;;;0.28;;
53064;SDS011;38948;48.376;-4.312;2022-10-14T16:05:11;0.15;;;0.10;;
53064;SDS011;38948;48.376;-4.312;2022-10-14T16:07:36;0.50;;;0.17;;
53064;SDS011;38948;48.376;-4.312;2022-10-14T16:10:03;0.10;;;0.10;;
53064;SDS011;38948;48.376;-4.312;2022-10-14T16:12:30;0.15;;;0.15;;
53064;SDS011;38948;48.376;-4.312;2022-10-14T16:14:56;0.85;;;0.35;;
53064;SDS011;38948;48.376;-4.312;2022-10-14T16:17:23;0.52;;;0.30;;
53064;SDS011;38948;48.376;-4.312;2022-10-14T16:19:48;1.40;;;0.40;;
53064;SDS011;38948;48.376;-4.312;2022-10-14T16:22:14;0.73;;;0.40;;
53064;SDS011;38948;48.376;-4.312;2022-10-14T16:24:40;0.98;;;0.47;;
53064;SDS011;38948;48.376;-4.312;2022-10-14T16:27:06;0.85;;;0.50;;
53064;SDS011;38948;48.376;-4.312;2022-10-14T16:29:31;1.25;;;0.65;;
53064;SDS011;38948;48.376;-4.312;2022-10-14T16:31:57;0.85;;;0.50;;
53064;SDS011;38948;48.376;-4.312;2022-10-14T16:34:23;1.00;;;0.60;;
53064;SDS011;38948;48.376;-4.312;2022-10-14T16:36:49;3.42;;;0.68;;
53064;SDS011;38948;48.376;-4.312;2022-10-14T16:39:16;0.80;;;0.50;;
53064;SDS011;38948;48.376;-4.312;2022-10-14T16:41:43;1.33;;;0.90;;
53064;SDS011;38948;48.376;-4.312;2022-10-14T16:44:09;1.23;;;0.60;;
53064;SDS011;38948;48.376;-4.312;2022-10-14T16:46:50;1.15;;;0.70;;
53064;SDS011;38948;48.376;-4.312;2022-10-14T16:49:35;1.80;;;0.60;;
53064;SDS011;38948;48.376;-4.312;2022-10-14T16:52:01;1.42;;;0.70;;
53064;SDS011;38948;48.376;-4.312;2022-10-14T16:54:27;1.58;;;0.80;;
53064;SDS011;38948;48.376;-4.312;2022-10-14T16:56:52;2.78;;;0.95;;
53064;SDS011;38948;48.376;-4.312;2022-10-14T16:59:19;1.13;;;0.50;;
53064;SDS011;38948;48.376;-4.312;2022-10-14T17:01:45;2.25;;;0.85;;
53064;SDS011;38948;48.376;-4.312;2022-10-14T17:04:12;1.65;;;0.88;;
53064;SDS011;38948;48.376;-4.312;2022-10-14T17:06:39;2.67;;;0.70;;
53064;SDS011;38948;48.376;-4.312;2022-10-14T17:09:05;1.45;;;1.05;;
53064;SDS011;38948;48.376;-4.312;2022-10-14T17:11:32;6.43;;;1.00;;
53064;SDS011;38948;48.376;-4.312;2022-10-14T17:13:58;1.38;;;0.80;;
53064;SDS011;38948;48.376;-4.312;2022-10-14T17:16:25;2.67;;;0.88;;
53064;SDS011;38948;48.376;-4.312;2022-10-14T17:18:53;1.60;;;0.98;;
53064;SDS011;38948;48.376;-4.312;2022-10-14T17:21:19;1.73;;;0.90;;
53064;SDS011;38948;48.376;-4.312;2022-10-14T17:23:45;3.53;;;0.70;;
53064;SDS011;38948;48.376;-4.312;2022-10-14T17:26:13;1.23;;;0.90;;
53064;SDS011;38948;48.376;-4.312;2022-10-14T17:28:45;5.53;;;1.00;;
53064;SDS011;38948;48.376;-4.312;2022-10-14T17:31:14;4.65;;;1.08;;
53064;SDS011;38948;48.376;-4.312;2022-10-14T17:33:44;1.77;;;0.80;;
53064;SDS011;38948;48.376;-4.312;2022-10-14T17:36:19;1.60;;;1.02;;
53064;SDS011;38948;48.376;-4.312;2022-10-14T17:38:47;2.97;;;0.90;;
53064;SDS011;38948;48.376;-4.312;2022-10-14T17:41:15;3.97;;;0.85;;